createdAt,value
2018-01-08T00:00:02.051Z,10.20
2018-01-08T00:01:01.970Z,9.80
2018-01-08T00:02:01.889Z,8.10
2018-01-08T00:03:01.809Z,10.20
2018-01-08T00:04:01.728Z,9.30
2018-01-08T00:05:01.650Z,8.70
2018-01-08T00:06:01.566Z,8.30
2018-01-08T00:07:01.486Z,8.20
2018-01-08T00:08:01.405Z,9.90
2018-01-08T00:09:01.329Z,9.10
2018-01-08T00:10:01.243Z,8.50
2018-01-08T00:11:01.164Z,10.40
2018-01-08T00:12:01.084Z,8.80
2018-01-08T00:13:01.004Z,8.00
2018-01-08T00:14:00.923Z,8.90
2018-01-08T00:15:00.842Z,8.50
2018-01-08T00:16:00.762Z,9.20
2018-01-08T00:17:00.682Z,8.40
2018-01-08T00:18:00.601Z,9.10
2018-01-08T00:19:00.521Z,10.10
2018-01-08T00:20:00.441Z,7.90
2018-01-08T00:21:00.360Z,9.90
2018-01-08T00:22:00.280Z,9.30
2018-01-08T00:23:00.199Z,9.20
2018-01-08T00:24:00.121Z,8.70
2018-01-08T00:25:00.042Z,7.70
2018-01-08T00:25:59.958Z,7.80
2018-01-08T00:26:59.878Z,8.30
2018-01-08T00:27:59.798Z,8.50
2018-01-08T00:28:59.718Z,10.60
2018-01-08T00:29:59.637Z,8.90
2018-01-08T00:30:59.557Z,9.60
2018-01-08T00:31:59.477Z,10.30
2018-01-08T00:32:59.395Z,9.10
2018-01-08T00:33:59.316Z,9.20
2018-01-08T00:34:59.235Z,8.60
2018-01-08T00:35:59.154Z,10.00
2018-01-08T00:36:59.074Z,9.00
2018-01-08T00:37:58.995Z,9.30
2018-01-08T00:38:58.913Z,7.80
2018-01-08T00:39:58.833Z,9.10
2018-01-08T00:40:58.752Z,7.70
2018-01-08T00:41:58.669Z,7.90
2018-01-08T00:42:58.591Z,9.50
2018-01-08T00:43:58.511Z,10.10
2018-01-08T00:44:58.430Z,9.40
2018-01-08T00:45:58.349Z,10.40
2018-01-08T00:46:58.268Z,10.90
2018-01-08T00:47:58.188Z,9.10
2018-01-08T00:48:58.108Z,10.20
2018-01-08T00:49:58.026Z,9.70
2018-01-08T00:50:57.945Z,10.30
2018-01-08T00:51:57.865Z,10.40
2018-01-08T00:52:57.785Z,8.80
2018-01-08T00:53:57.704Z,8.70
2018-01-08T00:54:57.622Z,10.80
2018-01-08T00:55:57.549Z,10.20
2018-01-08T00:56:57.463Z,10.30
2018-01-08T00:57:57.381Z,9.20
2018-01-08T00:58:57.301Z,9.70
2018-01-08T00:59:57.220Z,9.70
2018-01-08T01:00:57.140Z,9.50
2018-01-08T01:01:57.059Z,9.80
2018-01-08T01:02:56.978Z,9.10
2018-01-08T01:03:56.897Z,11.30
2018-01-08T01:04:56.818Z,9.90
2018-01-08T01:05:56.736Z,10.00
2018-01-08T01:06:56.656Z,11.10
2018-01-08T01:07:56.575Z,11.50
2018-01-08T01:08:56.496Z,10.70
2018-01-08T01:09:56.415Z,11.30
2018-01-08T01:10:56.334Z,10.00
2018-01-08T01:11:56.255Z,9.70
2018-01-08T01:12:56.177Z,9.90
2018-01-08T01:13:56.093Z,12.80
2018-01-08T01:14:56.012Z,9.90
2018-01-08T01:15:55.932Z,16.60
2018-01-08T01:16:55.851Z,10.00
2018-01-08T01:17:55.771Z,10.20
2018-01-08T01:18:55.690Z,11.40
2018-01-08T01:19:55.611Z,8.60
2018-01-08T01:20:55.531Z,8.90
2018-01-08T01:21:55.449Z,12.10
2018-01-08T01:22:55.369Z,10.30
2018-01-08T01:23:55.288Z,12.10
2018-01-08T01:24:55.208Z,10.80
2018-01-08T01:25:55.130Z,10.80
2018-01-08T01:26:55.049Z,9.80
2018-01-08T01:27:54.972Z,11.10
2018-01-08T01:28:54.887Z,10.40
2018-01-08T01:29:54.805Z,12.10
2018-01-08T01:30:54.725Z,9.40
2018-01-08T01:31:54.646Z,12.20
2018-01-08T01:32:54.568Z,10.80
2018-01-08T01:33:54.483Z,10.90
2018-01-08T01:34:54.404Z,9.60
2018-01-08T01:35:54.323Z,9.20
2018-01-08T01:36:54.243Z,12.20
2018-01-08T01:37:54.162Z,9.80
2018-01-08T01:38:54.081Z,12.30
2018-01-08T01:39:54.002Z,12.60
2018-01-08T01:40:53.921Z,13.30
2018-01-08T01:41:53.840Z,11.30
2018-01-08T01:42:53.760Z,12.80
2018-01-08T01:43:53.680Z,9.50
2018-01-08T01:44:53.600Z,9.70
2018-01-08T01:45:53.519Z,12.40
2018-01-08T01:46:53.438Z,13.40
2018-01-08T01:47:53.357Z,12.50
2018-01-08T01:48:53.277Z,12.30
2018-01-08T01:49:53.196Z,12.90
2018-01-08T01:50:53.115Z,12.50
2018-01-08T01:51:53.035Z,12.10
2018-01-08T01:52:52.955Z,11.10
2018-01-08T01:53:52.874Z,12.50
2018-01-08T01:54:52.796Z,13.10
2018-01-08T01:55:52.713Z,12.30
2018-01-08T01:56:52.634Z,11.10
2018-01-08T01:57:52.552Z,11.20
2018-01-08T01:58:52.472Z,11.30
2018-01-08T01:59:52.392Z,10.50
2018-01-08T02:00:52.313Z,15.50
2018-01-08T02:01:52.231Z,11.40
2018-01-08T02:02:52.150Z,11.60
2018-01-08T02:03:52.070Z,12.60
2018-01-08T02:04:51.993Z,12.50
2018-01-08T02:05:51.910Z,11.10
2018-01-08T02:06:51.830Z,12.80
2018-01-08T02:07:51.749Z,13.10
2018-01-08T02:08:51.669Z,13.30
2018-01-08T02:09:51.588Z,11.80
2018-01-08T02:10:51.510Z,13.40
2018-01-08T02:11:51.427Z,14.50
2018-01-08T02:12:51.348Z,12.10
2018-01-08T02:13:51.267Z,12.90
2018-01-08T02:14:51.187Z,11.40
2018-01-08T02:15:51.106Z,13.40
2018-01-08T02:16:51.030Z,11.90
2018-01-08T02:17:50.946Z,13.50
2018-01-08T02:18:50.865Z,13.30
2018-01-08T02:19:50.786Z,12.00
2018-01-08T02:20:50.705Z,13.30
2018-01-08T02:21:50.625Z,11.60
2018-01-08T02:22:50.544Z,13.80
2018-01-08T02:23:50.465Z,12.40
2018-01-08T02:24:50.385Z,11.90
2018-01-08T02:25:50.304Z,13.70
2018-01-08T02:26:50.224Z,12.90
2018-01-08T02:27:50.143Z,9.20
2018-01-08T02:28:50.064Z,11.40
2018-01-08T02:29:49.982Z,13.90
2018-01-08T02:30:49.903Z,15.00
2018-01-08T02:31:49.822Z,15.20
2018-01-08T02:32:49.742Z,12.30
2018-01-08T02:33:49.661Z,10.90
2018-01-08T02:34:49.581Z,12.30
2018-01-08T02:35:49.501Z,13.40
2018-01-08T02:36:49.421Z,11.90
2018-01-08T02:37:49.340Z,11.30
2018-01-08T02:38:49.260Z,10.60
2018-01-08T02:39:49.179Z,10.40
2018-01-08T02:40:49.100Z,12.40
2018-01-08T02:41:49.018Z,12.90
2018-01-08T02:42:48.938Z,13.40
2018-01-08T02:43:48.859Z,13.90
2018-01-08T02:44:48.783Z,14.50
2018-01-08T02:45:48.848Z,13.70
2018-01-08T02:46:48.617Z,12.80
2018-01-08T02:47:48.538Z,13.00
2018-01-08T02:48:48.458Z,14.60
2018-01-08T02:49:48.376Z,12.00
2018-01-08T02:50:48.296Z,13.30
2018-01-08T02:51:48.216Z,13.80
2018-01-08T02:52:48.138Z,12.30
2018-01-08T02:53:48.059Z,12.50
2018-01-08T02:54:47.975Z,12.30
2018-01-08T02:55:47.897Z,13.00
2018-01-08T02:56:47.816Z,14.00
2018-01-08T02:57:47.736Z,14.60
2018-01-08T02:58:47.655Z,12.70
2018-01-08T02:59:47.581Z,11.60
2018-01-08T03:00:47.496Z,14.50
2018-01-08T03:01:47.414Z,11.90
2018-01-08T03:02:47.335Z,12.00
2018-01-08T03:03:47.254Z,13.00
2018-01-08T03:04:47.207Z,12.10
2018-01-08T03:05:47.094Z,11.10
2018-01-08T03:06:47.014Z,12.70
2018-01-08T03:07:46.934Z,12.40
2018-01-08T03:08:46.854Z,12.50
2018-01-08T03:09:46.773Z,12.40
2018-01-08T03:10:46.693Z,12.20
2018-01-08T03:11:46.613Z,14.10
2018-01-08T03:12:46.534Z,12.50
2018-01-08T03:13:46.455Z,12.00
2018-01-08T03:14:46.372Z,14.30
2018-01-08T03:15:46.292Z,13.90
2018-01-08T03:16:46.212Z,13.10
2018-01-08T03:17:46.131Z,11.50
2018-01-08T03:18:46.051Z,12.00
2018-01-08T03:19:45.971Z,13.20
2018-01-08T03:20:45.892Z,12.90
2018-01-08T03:21:45.810Z,14.50
2018-01-08T03:22:45.730Z,14.00
2018-01-08T03:23:45.650Z,14.60
2018-01-08T03:24:45.570Z,14.80
2018-01-08T03:25:45.491Z,13.90
2018-01-08T03:26:45.410Z,15.70
2018-01-08T03:27:45.330Z,12.80
2018-01-08T03:28:45.250Z,12.60
2018-01-08T03:29:45.169Z,16.60
2018-01-08T03:30:45.091Z,12.70
2018-01-08T03:31:45.009Z,13.70
2018-01-08T03:32:44.930Z,12.90
2018-01-08T03:33:44.848Z,13.30
2018-01-08T03:34:44.768Z,14.40
2018-01-08T03:35:44.689Z,13.60
2018-01-08T03:36:44.608Z,12.90
2018-01-08T03:37:44.528Z,13.10
2018-01-08T03:38:44.449Z,12.20
2018-01-08T03:39:44.367Z,13.00
2018-01-08T03:40:44.288Z,14.40
2018-01-08T03:41:44.207Z,13.20
2018-01-08T03:42:44.127Z,15.80
2018-01-08T03:43:44.047Z,12.20
2018-01-08T03:44:43.967Z,13.20
2018-01-08T03:45:43.887Z,14.40
2018-01-08T03:46:43.806Z,13.30
2018-01-08T03:47:43.727Z,11.00
2018-01-08T03:48:43.686Z,15.50
2018-01-08T03:49:43.566Z,15.00
2018-01-08T03:50:43.486Z,13.80
2018-01-08T03:51:43.406Z,14.30
2018-01-08T03:52:43.326Z,14.60
2018-01-08T03:53:43.245Z,15.00
2018-01-08T03:54:43.166Z,14.60
2018-01-08T03:55:43.087Z,15.50
2018-01-08T03:56:43.006Z,15.30
2018-01-08T03:57:42.928Z,13.70
2018-01-08T03:58:42.845Z,15.70
2018-01-08T03:59:42.766Z,18.40
2018-01-08T04:00:42.684Z,15.90
2018-01-08T04:01:42.605Z,15.30
2018-01-08T04:02:42.526Z,14.10
2018-01-08T04:03:42.445Z,14.10
2018-01-08T04:04:42.366Z,14.10
2018-01-08T04:05:42.284Z,15.20
2018-01-08T04:06:42.204Z,14.60
2018-01-08T04:07:42.126Z,16.50
2018-01-08T04:08:42.046Z,15.10
2018-01-08T04:09:41.965Z,16.60
2018-01-08T04:10:41.885Z,16.60
2018-01-08T04:11:41.843Z,15.40
2018-01-08T04:12:41.726Z,14.00
2018-01-08T04:13:41.645Z,14.90
2018-01-08T04:14:41.565Z,14.50
2018-01-08T04:15:41.490Z,14.90
2018-01-08T04:16:41.407Z,14.30
2018-01-08T04:17:41.326Z,15.00
2018-01-08T04:18:41.247Z,14.70
2018-01-08T04:19:41.173Z,15.30
2018-01-08T04:20:41.088Z,13.60
2018-01-08T04:21:41.007Z,13.60
2018-01-08T04:22:40.928Z,15.30
2018-01-08T04:23:40.848Z,14.00
2018-01-08T04:24:40.769Z,17.60
2018-01-08T04:25:40.689Z,15.80
2018-01-08T04:26:40.608Z,16.00
2018-01-08T04:27:40.529Z,15.30
2018-01-08T04:28:40.451Z,15.00
2018-01-08T04:29:40.369Z,14.30
2018-01-08T04:30:40.290Z,15.20
2018-01-08T04:31:40.210Z,15.20
2018-01-08T04:32:40.132Z,14.20
2018-01-08T04:33:40.049Z,16.90
2018-01-08T04:34:39.970Z,19.00
2018-01-08T04:35:39.890Z,15.00
2018-01-08T04:36:39.811Z,14.40
2018-01-08T04:37:39.730Z,14.40
2018-01-08T04:38:39.650Z,18.00
2018-01-08T04:39:39.575Z,18.40
2018-01-08T04:40:39.492Z,14.70
2018-01-08T04:41:39.410Z,14.60
2018-01-08T04:42:39.331Z,15.60
2018-01-08T04:43:39.251Z,16.80
2018-01-08T04:44:39.172Z,14.00
2018-01-08T04:45:39.091Z,16.70
2018-01-08T04:46:39.011Z,16.30
2018-01-08T04:47:38.931Z,15.00
2018-01-08T04:48:38.853Z,17.20
2018-01-08T04:49:38.772Z,15.70
2018-01-08T04:50:38.694Z,14.80
2018-01-08T04:51:38.612Z,14.40
2018-01-08T04:52:38.532Z,14.50
2018-01-08T04:53:38.453Z,14.70
2018-01-08T04:54:38.372Z,15.20
2018-01-08T04:55:38.292Z,14.70
2018-01-08T04:56:38.212Z,16.40
2018-01-08T04:57:38.132Z,14.60
2018-01-08T04:58:38.052Z,16.10
2018-01-08T04:59:37.971Z,16.10
2018-01-08T05:00:37.893Z,17.20
2018-01-08T05:01:37.811Z,16.30
2018-01-08T05:02:37.732Z,15.70
2018-01-08T05:03:37.652Z,16.10
2018-01-08T05:04:37.572Z,16.60
2018-01-08T05:05:37.492Z,15.70
2018-01-08T05:06:37.412Z,17.10
2018-01-08T05:07:37.333Z,17.10
2018-01-08T05:08:37.253Z,15.70
2018-01-08T05:09:37.172Z,14.70
2018-01-08T05:10:37.093Z,16.50
2018-01-08T05:11:37.014Z,16.60
2018-01-08T05:12:36.932Z,12.50
2018-01-08T05:13:36.852Z,13.80
2018-01-08T05:14:36.772Z,15.50
2018-01-08T05:15:36.693Z,15.90
2018-01-08T05:16:36.612Z,16.00
2018-01-08T05:17:36.682Z,16.70
2018-01-08T05:18:36.452Z,15.50
2018-01-08T05:19:36.372Z,19.20
2018-01-08T05:20:36.293Z,14.20
2018-01-08T05:21:36.212Z,17.90
2018-01-08T05:22:36.131Z,17.70
2018-01-08T05:23:36.054Z,15.10
2018-01-08T05:24:35.972Z,16.60
2018-01-08T05:25:35.892Z,15.50
2018-01-08T05:26:35.812Z,12.70
2018-01-08T05:27:35.732Z,15.60
2018-01-08T05:28:35.652Z,17.50
2018-01-08T05:29:35.571Z,14.40
2018-01-08T05:30:35.492Z,14.60
2018-01-08T05:31:35.411Z,15.40
2018-01-08T05:32:35.332Z,15.80
2018-01-08T05:33:35.251Z,12.60
2018-01-08T05:34:35.173Z,13.50
2018-01-08T05:35:35.092Z,16.20
2018-01-08T05:36:35.012Z,14.50
2018-01-08T05:37:34.932Z,15.20
2018-01-08T05:38:34.851Z,17.10
2018-01-08T05:39:34.772Z,16.70
2018-01-08T05:40:34.693Z,14.80
2018-01-08T05:41:34.611Z,15.90
2018-01-08T05:42:34.532Z,14.60
2018-01-08T05:43:34.458Z,16.90
2018-01-08T05:44:34.372Z,16.10
2018-01-08T05:45:34.291Z,18.10
2018-01-08T05:46:34.212Z,15.20
2018-01-08T05:47:34.132Z,17.60
2018-01-08T05:48:34.053Z,15.80
2018-01-08T05:49:33.972Z,15.70
2018-01-08T05:50:33.892Z,14.10
2018-01-08T05:51:33.813Z,14.50
2018-01-08T05:52:33.737Z,18.60
2018-01-08T05:53:33.653Z,17.80
2018-01-08T05:54:33.577Z,17.90
2018-01-08T05:55:33.492Z,16.10
2018-01-08T05:56:33.412Z,15.90
2018-01-08T05:57:33.336Z,16.50
2018-01-08T05:58:33.253Z,16.50
2018-01-08T05:59:33.173Z,16.80
2018-01-08T06:00:33.093Z,16.70
2018-01-08T06:01:33.013Z,16.30
2018-01-08T06:02:32.936Z,18.70
2018-01-08T06:03:32.852Z,18.50
2018-01-08T06:04:32.773Z,20.40
2018-01-08T06:05:32.692Z,16.10
2018-01-08T06:06:32.613Z,17.40
2018-01-08T06:07:32.533Z,17.50
2018-01-08T06:08:32.453Z,17.00
2018-01-08T06:09:32.372Z,19.30
2018-01-08T06:10:32.299Z,17.90
2018-01-08T06:11:32.211Z,17.60
2018-01-08T06:12:32.132Z,17.20
2018-01-08T06:13:32.051Z,15.10
2018-01-08T06:14:31.970Z,18.80
2018-01-08T06:15:31.891Z,19.50
2018-01-08T06:16:31.811Z,17.50
2018-01-08T06:17:31.730Z,18.00
2018-01-08T06:18:31.650Z,15.30
2018-01-08T06:19:31.573Z,17.30
2018-01-08T06:20:31.490Z,20.50
2018-01-08T06:21:31.408Z,14.80
2018-01-08T06:22:31.329Z,16.20
2018-01-08T06:23:31.252Z,17.00
2018-01-08T06:24:31.169Z,16.20
2018-01-08T06:25:31.087Z,17.10
2018-01-08T06:26:31.008Z,19.30
2018-01-08T06:27:30.928Z,24.30
2018-01-08T06:28:30.848Z,16.60
2018-01-08T06:29:30.767Z,15.20
2018-01-08T06:30:30.687Z,17.30
2018-01-08T06:31:30.607Z,16.90
2018-01-08T06:32:30.528Z,20.50
2018-01-08T06:33:30.446Z,15.60
2018-01-08T06:34:30.366Z,17.60
2018-01-08T06:35:30.286Z,16.80
2018-01-08T06:36:30.206Z,17.20
2018-01-08T06:37:30.126Z,18.20
2018-01-08T06:38:30.046Z,15.50
2018-01-08T06:39:29.966Z,17.20
2018-01-08T06:40:29.886Z,19.10
2018-01-08T06:41:29.805Z,18.60
2018-01-08T06:42:29.725Z,16.90
2018-01-08T06:43:29.645Z,16.30
2018-01-08T06:44:29.565Z,20.40
2018-01-08T06:45:29.484Z,16.40
2018-01-08T06:46:29.404Z,16.20
2018-01-08T06:47:29.325Z,18.60
2018-01-08T06:48:29.245Z,17.40
2018-01-08T06:49:29.165Z,16.90
2018-01-08T06:50:29.085Z,17.20
2018-01-08T06:51:29.008Z,14.90
2018-01-08T06:52:28.925Z,16.40
2018-01-08T06:53:28.842Z,17.50
2018-01-08T06:54:28.763Z,16.90
2018-01-08T06:55:28.683Z,16.20
2018-01-08T06:56:28.603Z,16.80
2018-01-08T06:57:28.527Z,17.40
2018-01-08T06:58:28.442Z,16.80
2018-01-08T06:59:28.365Z,16.40
2018-01-08T07:00:28.283Z,18.80
2018-01-08T07:01:28.202Z,16.40
2018-01-08T07:02:28.134Z,16.70
2018-01-08T07:03:28.043Z,16.60
2018-01-08T07:04:27.963Z,17.70
2018-01-08T07:05:27.882Z,16.20
2018-01-08T07:06:27.802Z,18.80
2018-01-08T07:07:27.722Z,17.00
2018-01-08T07:08:27.643Z,16.30
2018-01-08T07:09:27.563Z,14.50
2018-01-08T07:10:27.482Z,15.40
2018-01-08T07:11:27.406Z,14.30
2018-01-08T07:12:27.323Z,16.10
2018-01-08T07:13:27.242Z,17.70
2018-01-08T07:14:27.162Z,14.40
2018-01-08T07:15:27.083Z,17.30
2018-01-08T07:16:27.005Z,16.10
2018-01-08T07:17:26.922Z,14.80
2018-01-08T07:18:26.842Z,15.40
2018-01-08T07:19:26.763Z,16.90
2018-01-08T07:20:26.683Z,15.70
2018-01-08T07:21:26.602Z,15.90
2018-01-08T07:22:26.522Z,13.70
2018-01-08T07:23:26.442Z,16.70
2018-01-08T07:24:26.363Z,13.40
2018-01-08T07:25:26.282Z,14.10
2018-01-08T07:26:26.202Z,15.60
2018-01-08T07:27:26.123Z,18.10
2018-01-08T07:28:26.042Z,16.60
2018-01-08T07:29:25.963Z,14.80
2018-01-08T07:30:25.882Z,15.30
2018-01-08T07:31:25.802Z,15.40
2018-01-08T07:32:25.725Z,16.90
2018-01-08T07:33:25.641Z,17.00
2018-01-08T07:34:25.562Z,16.70
2018-01-08T07:35:25.482Z,15.90
2018-01-08T07:36:25.404Z,15.30
2018-01-08T07:37:25.322Z,15.10
2018-01-08T07:38:25.243Z,13.90
2018-01-08T07:39:25.164Z,14.90
2018-01-08T07:40:25.083Z,16.10
2018-01-08T07:41:25.003Z,15.70
2018-01-08T07:42:24.923Z,14.20
2018-01-08T07:43:24.844Z,16.90
2018-01-08T07:44:24.764Z,16.00
2018-01-08T07:45:24.683Z,15.30
2018-01-08T07:46:24.604Z,14.60
2018-01-08T07:47:24.524Z,15.50
2018-01-08T07:48:24.443Z,14.60
2018-01-08T07:49:24.364Z,14.00
2018-01-08T07:50:24.284Z,17.50
2018-01-08T07:51:24.205Z,15.60
2018-01-08T07:52:24.125Z,15.50
2018-01-08T07:53:24.045Z,14.20
2018-01-08T07:54:23.965Z,14.50
2018-01-08T07:55:23.886Z,15.10
2018-01-08T07:56:23.805Z,16.50
2018-01-08T07:57:23.725Z,16.40
2018-01-08T07:58:23.645Z,14.80
2018-01-08T07:59:23.566Z,15.30
2018-01-08T08:00:23.486Z,16.50
2018-01-08T08:01:23.405Z,17.40
2018-01-08T08:02:23.325Z,14.40
2018-01-08T08:03:23.248Z,16.20
2018-01-08T08:04:23.166Z,16.90
2018-01-08T08:05:23.086Z,16.40
2018-01-08T08:06:23.006Z,12.50
2018-01-08T08:07:22.926Z,16.00
2018-01-08T08:08:22.846Z,15.70
2018-01-08T08:09:22.768Z,16.60
2018-01-08T08:10:22.686Z,18.00
2018-01-08T08:11:22.605Z,15.10
2018-01-08T08:12:22.526Z,17.20
2018-01-08T08:13:22.443Z,13.10
2018-01-08T08:14:22.365Z,14.50
2018-01-08T08:15:22.284Z,16.10
2018-01-08T08:16:22.204Z,17.30
2018-01-08T08:17:22.123Z,14.80
2018-01-08T08:18:22.044Z,16.90
2018-01-08T08:19:21.964Z,15.70
2018-01-08T08:20:21.884Z,15.90
2018-01-08T08:21:21.802Z,14.10
2018-01-08T08:22:21.721Z,15.70
2018-01-08T08:23:21.644Z,13.70
2018-01-08T08:24:21.563Z,12.90
2018-01-08T08:25:21.481Z,15.80
2018-01-08T08:26:21.401Z,13.80
2018-01-08T08:27:21.321Z,17.20
2018-01-08T08:28:21.241Z,17.70
2018-01-08T08:29:21.161Z,15.60
2018-01-08T08:30:21.081Z,13.70
2018-01-08T08:31:21.001Z,14.00
2018-01-08T08:32:20.920Z,15.20
2018-01-08T08:33:20.840Z,14.90
2018-01-08T08:34:20.759Z,15.30
2018-01-08T08:35:20.679Z,15.00
2018-01-08T08:36:20.600Z,14.80
2018-01-08T08:37:20.519Z,18.30
2018-01-08T08:38:20.439Z,16.40
2018-01-08T08:39:20.359Z,18.00
2018-01-08T08:40:20.284Z,16.80
2018-01-08T08:41:20.198Z,16.70
2018-01-08T08:42:20.118Z,18.20
2018-01-08T08:43:20.039Z,17.00
2018-01-08T08:44:19.962Z,14.90
2018-01-08T08:45:19.878Z,16.10
2018-01-08T08:46:19.798Z,14.60
2018-01-08T08:47:19.718Z,15.40
2018-01-08T08:48:19.638Z,16.00
2018-01-08T08:49:19.557Z,13.40
2018-01-08T08:50:19.480Z,14.40
2018-01-08T08:51:19.397Z,15.80
2018-01-08T08:52:19.318Z,14.80
2018-01-08T08:53:19.237Z,14.70
2018-01-08T08:54:19.157Z,14.90
2018-01-08T08:55:19.077Z,16.00
2018-01-08T08:56:18.998Z,18.30
2018-01-08T08:57:18.917Z,14.10
2018-01-08T08:58:18.916Z,14.80
2018-01-08T08:59:18.757Z,17.20
2018-01-08T09:00:18.677Z,18.50
2018-01-08T09:01:18.596Z,19.40
2018-01-08T09:02:18.516Z,20.30
2018-01-08T09:03:18.437Z,16.60
2018-01-08T09:04:18.357Z,15.10
2018-01-08T09:05:18.276Z,16.10
2018-01-08T09:06:18.196Z,16.00
2018-01-08T09:07:18.119Z,17.50
2018-01-08T09:08:18.041Z,17.00
2018-01-08T09:09:17.957Z,14.40
2018-01-08T09:10:17.876Z,16.30
2018-01-08T09:11:17.798Z,15.10
2018-01-08T09:12:17.718Z,14.30
2018-01-08T09:13:17.638Z,16.70
2018-01-08T09:14:17.558Z,15.40
2018-01-08T09:15:17.478Z,15.40
2018-01-08T09:16:17.399Z,16.50
2018-01-08T09:17:17.318Z,15.60
2018-01-08T09:18:17.238Z,13.10
2018-01-08T09:19:17.160Z,13.70
2018-01-08T09:20:17.079Z,15.40
2018-01-08T09:21:16.997Z,15.40
2018-01-08T09:22:16.933Z,14.60
2018-01-08T09:23:16.839Z,14.50
2018-01-08T09:24:16.759Z,15.90
2018-01-08T09:25:16.678Z,14.40
2018-01-08T09:26:16.598Z,15.70
2018-01-08T09:27:16.518Z,14.40
2018-01-08T09:28:16.439Z,16.20
2018-01-08T09:29:16.359Z,16.60
2018-01-08T09:30:16.278Z,15.00
2018-01-08T09:31:16.198Z,16.00
2018-01-08T09:32:16.118Z,15.20
2018-01-08T09:33:16.037Z,14.70
2018-01-08T09:34:15.958Z,15.90
2018-01-08T09:35:15.878Z,15.00
2018-01-08T09:36:15.798Z,16.60
2018-01-08T09:37:15.719Z,14.10
2018-01-08T09:38:15.638Z,15.40
2018-01-08T09:39:15.558Z,16.90
2018-01-08T09:40:15.479Z,16.70
2018-01-08T09:41:15.401Z,17.90
2018-01-08T09:42:15.318Z,16.40
2018-01-08T09:43:15.239Z,14.30
2018-01-08T09:44:15.167Z,16.00
2018-01-08T09:45:15.083Z,16.40
2018-01-08T09:46:14.998Z,17.40
2018-01-08T09:47:14.918Z,17.40
2018-01-08T09:48:14.838Z,15.20
2018-01-08T09:49:14.758Z,23.20
2018-01-08T09:50:14.678Z,13.70
2018-01-08T09:51:14.611Z,15.80
2018-01-08T09:52:14.519Z,16.20
2018-01-08T09:53:14.438Z,15.30
2018-01-08T09:54:14.358Z,15.80
2018-01-08T09:55:14.279Z,16.30
2018-01-08T09:56:14.199Z,16.10
2018-01-08T09:57:14.117Z,18.00
2018-01-08T09:58:14.038Z,15.00
2018-01-08T09:59:13.958Z,17.90
2018-01-08T10:00:13.878Z,16.40
2018-01-08T10:01:13.798Z,19.20
2018-01-08T10:02:13.718Z,15.10
2018-01-08T10:03:13.638Z,15.40
2018-01-08T10:04:13.558Z,16.90
2018-01-08T10:05:13.477Z,15.00
2018-01-08T10:06:13.398Z,16.50
2018-01-08T10:07:13.318Z,15.40
2018-01-08T10:08:13.238Z,20.20
2018-01-08T10:09:13.157Z,14.50
2018-01-08T10:10:13.077Z,15.60
2018-01-08T10:11:12.998Z,15.00
2018-01-08T10:12:12.917Z,15.50
2018-01-08T10:13:12.837Z,13.70
2018-01-08T10:14:12.769Z,13.90
2018-01-08T10:15:12.678Z,14.00
2018-01-08T10:16:12.597Z,15.30
2018-01-08T10:17:12.516Z,17.20
2018-01-08T10:18:12.437Z,18.00
2018-01-08T10:19:12.357Z,15.70
2018-01-08T10:20:12.336Z,14.80
2018-01-08T10:21:12.197Z,14.70
2018-01-08T10:22:12.118Z,14.00
2018-01-08T10:23:12.037Z,15.10
2018-01-08T10:24:11.957Z,16.00
2018-01-08T10:25:11.877Z,14.00
2018-01-08T10:26:11.797Z,16.00
2018-01-08T10:27:11.717Z,16.30
2018-01-08T10:28:11.637Z,16.10
2018-01-08T10:29:11.556Z,17.80
2018-01-08T10:30:11.476Z,14.80
2018-01-08T10:31:11.397Z,14.50
2018-01-08T10:32:11.317Z,14.30
2018-01-08T10:33:11.240Z,14.50
2018-01-08T10:34:11.156Z,16.30
2018-01-08T10:35:11.082Z,13.70
2018-01-08T10:36:10.997Z,16.20
2018-01-08T10:37:10.916Z,16.10
2018-01-08T10:38:10.836Z,16.80
2018-01-08T10:39:10.756Z,13.90
2018-01-08T10:40:10.677Z,13.80
2018-01-08T10:41:10.595Z,14.50
2018-01-08T10:42:10.516Z,16.00
2018-01-08T10:43:10.438Z,15.30
2018-01-08T10:44:10.357Z,14.20
2018-01-08T10:45:10.277Z,14.20
2018-01-08T10:46:10.197Z,12.30
2018-01-08T10:47:10.119Z,15.10
2018-01-08T10:48:10.038Z,15.60
2018-01-08T10:49:09.957Z,13.60
2018-01-08T10:50:09.878Z,15.40
2018-01-08T10:51:09.798Z,17.10
2018-01-08T10:52:09.720Z,14.70
2018-01-08T10:53:09.639Z,16.20
2018-01-08T10:54:09.559Z,16.90
2018-01-08T10:55:09.479Z,15.90
2018-01-08T10:56:09.400Z,16.70
2018-01-08T10:57:09.320Z,13.10
2018-01-08T10:58:09.239Z,15.20
2018-01-08T10:59:09.162Z,14.90
2018-01-08T11:00:09.081Z,15.10
2018-01-08T11:01:09.001Z,13.80
2018-01-08T11:02:08.922Z,15.70
2018-01-08T11:03:08.842Z,14.90
2018-01-08T11:04:08.762Z,13.60
2018-01-08T11:05:08.682Z,15.20
2018-01-08T11:06:08.603Z,16.60
2018-01-08T11:07:08.525Z,15.20
2018-01-08T11:08:08.444Z,14.90
2018-01-08T11:09:08.364Z,16.90
2018-01-08T11:10:08.290Z,16.70
2018-01-08T11:11:08.206Z,19.80
2018-01-08T11:12:08.126Z,24.00
2018-01-08T11:13:08.046Z,11.80
2018-01-08T11:14:08.008Z,17.40
2018-01-08T11:15:07.887Z,15.20
2018-01-08T11:16:07.812Z,14.70
2018-01-08T11:17:07.729Z,15.60
2018-01-08T11:18:07.650Z,16.60
2018-01-08T11:19:07.571Z,14.40
2018-01-08T11:20:07.492Z,14.10
2018-01-08T11:21:07.412Z,15.50
2018-01-08T11:22:07.334Z,13.70
2018-01-08T11:23:07.254Z,16.50
2018-01-08T11:24:07.177Z,16.90
2018-01-08T11:25:07.096Z,13.50
2018-01-08T11:26:07.016Z,15.60
2018-01-08T11:27:06.937Z,14.30
2018-01-08T11:28:06.858Z,16.70
2018-01-08T11:29:06.777Z,14.10
2018-01-08T11:30:06.700Z,16.50
2018-01-08T11:31:06.620Z,18.00
2018-01-08T11:32:06.545Z,16.40
2018-01-08T11:33:06.463Z,13.90
2018-01-08T11:34:06.384Z,17.00
2018-01-08T11:35:06.306Z,13.50
2018-01-08T11:36:06.228Z,15.50
2018-01-08T11:37:06.147Z,15.30
2018-01-08T11:38:06.074Z,16.00
2018-01-08T11:39:05.989Z,14.40
2018-01-08T11:40:05.912Z,13.90
2018-01-08T11:41:05.876Z,15.90
2018-01-08T11:42:05.752Z,16.10
2018-01-08T11:43:05.675Z,15.10
2018-01-08T11:44:05.596Z,16.10
2018-01-08T11:45:05.515Z,15.10
2018-01-08T11:46:05.436Z,15.10
2018-01-08T11:47:05.359Z,17.10
2018-01-08T11:48:05.279Z,15.90
2018-01-08T11:49:05.200Z,16.80
2018-01-08T11:50:05.120Z,14.30
2018-01-08T11:51:05.042Z,18.30
2018-01-08T11:52:04.962Z,15.10
2018-01-08T11:53:04.883Z,15.40
2018-01-08T11:54:04.805Z,16.00
2018-01-08T11:55:04.726Z,16.20
2018-01-08T11:56:04.648Z,16.50
2018-01-08T11:57:04.567Z,14.00
2018-01-08T11:58:04.488Z,16.20
2018-01-08T11:59:04.410Z,16.90
2018-01-08T12:00:04.332Z,14.60
2018-01-08T12:01:04.252Z,14.60
2018-01-08T12:02:04.172Z,15.20
2018-01-08T12:03:04.095Z,16.80
2018-01-08T12:04:04.014Z,16.40
2018-01-08T12:05:03.936Z,15.60
2018-01-08T12:06:03.856Z,20.50
2018-01-08T12:07:03.778Z,16.10
2018-01-08T12:08:03.699Z,16.50
2018-01-08T12:09:03.621Z,15.90
2018-01-08T12:10:03.539Z,16.50
2018-01-08T12:11:03.461Z,17.40
2018-01-08T12:12:03.383Z,13.90
2018-01-08T12:13:03.302Z,19.00
2018-01-08T12:14:03.223Z,17.70
2018-01-08T12:15:03.143Z,16.50
2018-01-08T12:16:03.064Z,15.20
2018-01-08T12:17:02.983Z,17.10
2018-01-08T12:18:02.955Z,16.80
2018-01-08T12:19:02.827Z,16.40
2018-01-08T12:20:02.747Z,16.70
2018-01-08T12:21:02.667Z,13.10
2018-01-08T12:22:02.588Z,18.00
2018-01-08T12:23:02.509Z,15.40
2018-01-08T12:24:02.436Z,15.00
2018-01-08T12:25:02.349Z,17.30
2018-01-08T12:26:02.270Z,13.80
2018-01-08T12:27:02.191Z,16.70
2018-01-08T12:28:02.111Z,17.50
2018-01-08T12:29:02.032Z,16.40
2018-01-08T12:30:01.953Z,15.00
2018-01-08T12:31:01.874Z,15.70
2018-01-08T12:32:01.795Z,18.50
2018-01-08T12:33:01.714Z,15.40
2018-01-08T12:34:01.635Z,15.50
2018-01-08T12:35:01.556Z,15.10
2018-01-08T12:36:01.480Z,15.70
2018-01-08T12:37:01.400Z,16.70
2018-01-08T12:38:01.318Z,16.30
2018-01-08T12:39:01.239Z,17.90
2018-01-08T12:40:01.160Z,15.50
2018-01-08T12:41:01.080Z,12.90
2018-01-08T12:42:01.002Z,15.30
2018-01-08T12:43:00.922Z,15.10
2018-01-08T12:44:00.843Z,17.50
2018-01-08T12:45:00.763Z,16.80
2018-01-08T12:46:00.684Z,17.10
2018-01-08T12:47:00.606Z,16.40
2018-01-08T12:48:00.527Z,17.30
2018-01-08T12:49:00.447Z,13.30
2018-01-08T12:50:00.375Z,17.30
2018-01-08T12:51:00.289Z,14.90
2018-01-08T12:52:00.210Z,18.20
2018-01-08T12:53:00.130Z,18.00